Time;durP1;ratioP1;P1;durP2;ratioP2;P2;SDS_P1;SDS_P2;PMS_P1;PMS_P2;Temp;Humidity;BMP_temperature;BMP_pressure;BME280_temperature;BME280_humidity;BME280_pressure;Samples;Min_cycle;Max_cycle;Signal;HPM_P1;HPM_P2
2021/06/22 00:01:59;;;;;;;;;;;11.50;99.90;;;;;;5095429;28;19943;-72
2021/06/22 00:04:25;;;;;;;;;;;11.60;99.90;;;;;;5095373;28;19912;-74
2021/06/22 00:06:52;;;;;;;;;;;11.70;99.90;;;;;;5095663;28;19953;-72
2021/06/22 00:09:19;;;;;;;;;;;11.60;99.90;;;;;;5094548;28;19908;-73
2021/06/22 00:11:45;;;;;;;;;;;11.50;99.90;;;;;;5095116;28;19912;-73
2021/06/22 00:14:12;;;;;;;;;;;11.50;99.90;;;;;;5094796;28;20350;-71
2021/06/22 00:16:42;;;;;;;;;;;11.50;99.90;;;;;;5094401;28;19968;-71
2021/06/22 00:19:08;;;;;;;;;;;11.60;99.90;;;;;;5088795;28;19913;-72
2021/06/22 00:21:35;;;;;;;;;;;11.60;99.90;;;;;;5082454;28;20354;-73
2021/06/22 00:24:02;;;;;;;;;;;11.60;99.90;;;;;;5073938;28;20286;-74
2021/06/22 00:26:28;;;;;;;;;;;11.70;99.90;;;;;;5073772;28;19916;-72
2021/06/22 00:28:55;;;;;;;;;;;11.80;99.90;;;;;;5073831;28;19934;-73
2021/06/22 00:31:22;;;;;;;;;;;11.80;99.90;;;;;;5091510;28;19962;-73
2021/06/22 00:33:48;;;;;;;;;;;11.90;99.90;;;;;;5094386;28;19999;-73
2021/06/22 00:36:15;;;;;;;;;;;12.00;99.90;;;;;;5094750;28;19950;-73
2021/06/22 00:38:42;;;;;;;;;;;12.10;99.90;;;;;;5094629;28;19949;-73
2021/06/22 00:41:08;;;;;;;;;;;12.10;99.90;;;;;;5094525;28;19912;-72
2021/06/22 00:43:38;;;;;;;;;;;12.20;99.90;;;;;;5094204;28;20033;-72
2021/06/22 00:46:05;;;;;;;;;;;12.40;99.90;;;;;;5094333;28;19965;-73
2021/06/22 00:48:32;;;;;;;;;;;12.50;99.90;;;;;;5094458;28;19999;-71
2021/06/22 00:50:59;;;;;;;;;;;12.60;99.90;;;;;;5094263;28;19961;-72
2021/06/22 00:53:26;;;;;;;;;;;12.60;99.90;;;;;;5094184;28;20026;-71
2021/06/22 00:55:54;;;;;;;;;;;12.70;99.90;;;;;;5093983;28;20278;-73
2021/06/22 00:58:21;;;;;;;;;;;12.80;99.90;;;;;;5094398;28;20303;-71
2021/06/22 01:00:47;;;;;;;;;;;12.80;99.90;;;;;;5094105;28;19912;-72
2021/06/22 01:03:14;;;;;;;;;;;12.90;99.90;;;;;;5094079;28;19915;-74
2021/06/22 01:05:41;;;;;;;;;;;13.00;99.90;;;;;;5092437;28;19915;-72
2021/06/22 01:08:08;;;;;;;;;;;13.00;99.90;;;;;;5093923;28;19947;-74
2021/06/22 01:10:35;;;;;;;;;;;13.00;99.90;;;;;;5093887;28;19916;-72
2021/06/22 01:13:02;;;;;;;;;;;13.00;99.90;;;;;;5093737;28;20396;-74
2021/06/22 01:15:29;;;;;;;;;;;13.00;99.90;;;;;;5093592;28;20015;-74
2021/06/22 01:17:57;;;;;;;;;;;13.00;99.90;;;;;;5093898;28;19955;-73
2021/06/22 01:20:29;;;;;;;;;;;12.90;99.90;;;;;;5093701;28;19940;-72
2021/06/22 01:22:56;;;;;;;;;;;12.90;99.90;;;;;;5093744;28;19955;-72
2021/06/22 01:25:23;;;;;;;;;;;12.90;99.90;;;;;;5093711;28;19943;-73
2021/06/22 01:27:50;;;;;;;;;;;12.90;99.90;;;;;;5092925;28;19915;-74
2021/06/22 01:30:17;;;;;;;;;;;13.00;99.90;;;;;;5093237;28;20354;-73
2021/06/22 01:32:43;;;;;;;;;;;13.00;99.90;;;;;;5093607;28;19908;-72
2021/06/22 01:35:11;;;;;;;;;;;13.00;99.90;;;;;;5093530;28;19916;-74
2021/06/22 01:37:49;;;;;;;;;;;13.00;99.90;;;;;;5093366;28;20287;-73
2021/06/22 01:40:16;;;;;;;;;;;13.00;99.90;;;;;;5093935;28;19919;-74
2021/06/22 01:42:42;;;;;;;;;;;13.10;99.90;;;;;;5094075;28;19908;-74
2021/06/22 01:45:09;;;;;;;;;;;13.10;99.90;;;;;;5093924;28;20285;-74
2021/06/22 01:47:36;;;;;;;;;;;13.10;99.90;;;;;;5093144;28;19958;-73
2021/06/22 01:50:03;;;;;;;;;;;13.20;99.90;;;;;;5093366;28;19915;-73
2021/06/22 01:52:31;;;;;;;;;;;13.30;99.90;;;;;;5093344;28;19919;-74
2021/06/22 01:54:59;;;;;;;;;;;13.30;99.90;;;;;;5093190;28;19916;-73
2021/06/22 01:57:26;;;;;;;;;;;13.30;99.90;;;;;;5093124;28;20374;-73
2021/06/22 01:59:53;;;;;;;;;;;13.30;99.90;;;;;;5093155;28;19908;-72
2021/06/22 02:02:20;;;;;;;;;;;13.30;99.90;;;;;;5093081;28;20371;-74
2021/06/22 02:04:47;;;;;;;;;;;13.40;99.90;;;;;;5093469;28;19908;-71
2021/06/22 02:07:13;;;;;;;;;;;13.50;99.90;;;;;;5093352;28;19909;-73
2021/06/22 02:09:40;;;;;;;;;;;13.50;99.90;;;;;;5094197;28;19954;-73
2021/06/22 02:12:07;;;;;;;;;;;13.60;99.90;;;;;;5093307;28;20275;-73
2021/06/22 02:14:33;;;;;;;;;;;13.50;99.90;;;;;;5093288;28;20313;-74
2021/06/22 02:17:01;;;;;;;;;;;13.60;99.90;;;;;;5085643;28;19966;-73
2021/06/22 02:19:29;;;;;;;;;;;13.60;99.90;;;;;;5079290;28;19955;-75
2021/06/22 02:21:56;;;;;;;;;;;13.60;99.90;;;;;;5072304;28;19909;-72
2021/06/22 02:24:23;;;;;;;;;;;13.70;99.90;;;;;;5072152;28;20286;-73
2021/06/22 02:26:49;;;;;;;;;;;13.80;99.90;;;;;;5072247;28;19909;-73
2021/06/22 02:29:16;;;;;;;;;;;13.90;99.90;;;;;;5072127;28;19909;-72
2021/06/22 02:31:43;;;;;;;;;;;14.10;99.90;;;;;;5071808;28;19931;-72
2021/06/22 02:34:09;;;;;;;;;;;14.30;99.90;;;;;;5072095;28;20308;-72
2021/06/22 02:36:36;;;;;;;;;;;14.30;99.90;;;;;;5072015;28;20453;-71
2021/06/22 02:39:03;;;;;;;;;;;14.40;99.90;;;;;;5072364;28;19990;-69
2021/06/22 02:41:30;;;;;;;;;;;14.60;99.90;;;;;;5075039;28;19915;-71
2021/06/22 02:43:57;;;;;;;;;;;14.70;99.90;;;;;;5075459;28;19909;-70
2021/06/22 02:46:23;;;;;;;;;;;14.80;99.90;;;;;;5075744;28;19909;-69
2021/06/22 02:48:53;;;;;;;;;;;14.80;99.90;;;;;;5075801;28;19909;-72
2021/06/22 02:51:19;;;;;;;;;;;14.80;99.90;;;;;;5074465;28;19909;-71
2021/06/22 02:53:46;;;;;;;;;;;14.70;99.90;;;;;;5088638;28;20360;-70
2021/06/22 02:56:13;;;;;;;;;;;14.60;99.90;;;;;;5096707;28;19908;-73
2021/06/22 02:58:40;;;;;;;;;;;14.50;99.90;;;;;;5096656;28;19908;-72
2021/06/22 03:01:06;;;;;;;;;;;14.40;99.90;;;;;;5096563;28;19908;-73
2021/06/22 03:03:36;;;;;;;;;;;14.50;99.90;;;;;;5096218;28;19908;-70
2021/06/22 03:06:03;;;;;;;;;;;14.50;99.90;;;;;;5096202;28;20327;-72
2021/06/22 03:08:29;;;;;;;;;;;14.50;99.90;;;;;;5096328;28;19994;-73
2021/06/22 03:10:56;;;;;;;;;;;14.50;99.90;;;;;;5096258;28;19962;-73
2021/06/22 03:13:23;;;;;;;;;;;14.50;99.90;;;;;;5096023;28;19958;-73
2021/06/22 03:15:49;;;;;;;;;;;14.40;99.90;;;;;;5096105;28;19912;-73
2021/06/22 03:18:16;;;;;;;;;;;14.40;99.90;;;;;;5096811;28;19908;-73
2021/06/22 03:20:43;;;;;;;;;;;14.40;99.90;;;;;;5096238;28;19954;-72
2021/06/22 03:23:10;;;;;;;;;;;14.70;99.90;;;;;;5096120;28;19947;-70
2021/06/22 03:25:37;;;;;;;;;;;14.70;99.90;;;;;;5095740;28;19919;-73
2021/06/22 03:28:05;;;;;;;;;;;14.80;99.90;;;;;;5096019;28;19908;-72
2021/06/22 03:30:32;;;;;;;;;;;14.80;99.90;;;;;;5095767;28;19915;-72
2021/06/22 03:32:59;;;;;;;;;;;14.80;99.90;;;;;;5096009;28;20316;-73
2021/06/22 03:35:27;;;;;;;;;;;14.80;99.90;;;;;;5090269;28;19935;-70
2021/06/22 03:37:54;;;;;;;;;;;14.90;99.90;;;;;;5091425;28;20024;-70
2021/06/22 03:40:21;;;;;;;;;;;14.90;99.90;;;;;;5084377;28;19912;-72
2021/06/22 03:42:48;;;;;;;;;;;15.00;99.90;;;;;;5074938;28;20378;-73
2021/06/22 03:45:16;;;;;;;;;;;15.10;99.90;;;;;;5074698;28;19958;-70
2021/06/22 03:47:42;;;;;;;;;;;15.10;99.90;;;;;;5085022;28;20007;-73
2021/06/22 03:50:09;;;;;;;;;;;15.20;99.90;;;;;;5095716;28;19908;-73
2021/06/22 03:52:36;;;;;;;;;;;15.20;99.90;;;;;;5094698;28;19919;-72
2021/06/22 03:55:25;;;;;;;;;;;15.20;99.90;;;;;;5095583;28;19916;-72
2021/06/22 03:57:52;;;;;;;;;;;15.10;99.90;;;;;;5094845;28;19962;-73
2021/06/22 04:00:19;;;;;;;;;;;15.10;99.90;;;;;;5095246;28;19912;-74
2021/06/22 04:02:45;;;;;;;;;;;15.10;99.90;;;;;;5095287;28;20328;-72
2021/06/22 04:05:12;;;;;;;;;;;15.10;99.90;;;;;;5095277;28;19908;-72
2021/06/22 04:07:39;;;;;;;;;;;15.10;99.90;;;;;;5094898;28;19908;-71
2021/06/22 04:10:06;;;;;;;;;;;15.10;99.90;;;;;;5095012;28;20290;-69
2021/06/22 04:12:32;;;;;;;;;;;15.20;99.90;;;;;;5094853;28;19924;-71
2021/06/22 04:14:59;;;;;;;;;;;15.30;99.90;;;;;;5095082;28;19920;-71
2021/06/22 04:17:26;;;;;;;;;;;15.20;99.90;;;;;;5096705;28;20010;-72
2021/06/22 04:19:52;;;;;;;;;;;15.10;99.90;;;;;;5094831;28;20267;-70
2021/06/22 04:22:19;;;;;;;;;;;15.10;99.90;;;;;;5094909;28;19953;-72
2021/06/22 04:24:46;;;;;;;;;;;15.10;99.90;;;;;;5094804;28;19912;-71
2021/06/22 04:27:12;;;;;;;;;;;15.20;99.90;;;;;;5094764;28;20332;-73
2021/06/22 04:29:39;;;;;;;;;;;15.20;99.90;;;;;;5094554;28;19999;-70
2021/06/22 04:32:06;;;;;;;;;;;15.20;99.90;;;;;;5094687;28;19916;-72
2021/06/22 04:34:33;;;;;;;;;;;15.30;99.90;;;;;;5094653;28;19916;-71
2021/06/22 04:36:59;;;;;;;;;;;15.30;99.90;;;;;;5094732;28;19908;-70
2021/06/22 04:39:26;;;;;;;;;;;15.20;99.90;;;;;;5094755;28;19908;-71
2021/06/22 04:41:53;;;;;;;;;;;15.20;99.90;;;;;;5094411;28;19962;-72
2021/06/22 04:44:19;;;;;;;;;;;15.10;99.90;;;;;;5094241;28;19917;-72
2021/06/22 04:46:46;;;;;;;;;;;15.00;99.90;;;;;;5094271;28;19951;-73
2021/06/22 04:49:13;;;;;;;;;;;15.00;99.90;;;;;;5094428;28;19952;-72
2021/06/22 04:51:39;;;;;;;;;;;15.10;99.90;;;;;;5094240;28;19953;-71
2021/06/22 04:54:08;;;;;;;;;;;15.00;99.90;;;;;;5094187;28;19912;-70
2021/06/22 04:56:34;;;;;;;;;;;15.10;99.90;;;;;;5094150;28;19915;-72
2021/06/22 04:59:01;;;;;;;;;;;15.10;99.90;;;;;;5094205;28;19912;-72
2021/06/22 05:01:28;;;;;;;;;;;15.10;99.90;;;;;;5094114;28;19999;-70
2021/06/22 05:03:54;;;;;;;;;;;15.10;99.90;;;;;;5092666;28;19916;-71
2021/06/22 05:06:21;;;;;;;;;;;15.00;99.90;;;;;;5093894;28;19908;-71
2021/06/22 05:08:48;;;;;;;;;;;15.00;99.90;;;;;;5094035;28;20263;-72
2021/06/22 05:11:15;;;;;;;;;;;14.90;99.90;;;;;;5093817;28;19915;-69
2021/06/22 05:13:41;;;;;;;;;;;14.90;99.90;;;;;;5093460;28;19943;-71
2021/06/22 05:16:08;;;;;;;;;;;14.80;99.90;;;;;;5093745;28;20275;-70
2021/06/22 05:18:35;;;;;;;;;;;14.80;99.90;;;;;;5093985;28;20193;-70
2021/06/22 05:21:02;;;;;;;;;;;14.80;99.90;;;;;;5093697;28;20259;-72
2021/06/22 05:23:28;;;;;;;;;;;14.70;99.90;;;;;;5093899;28;19909;-72
2021/06/22 05:25:55;;;;;;;;;;;14.70;99.90;;;;;;5093741;28;19912;-72
2021/06/22 05:28:22;;;;;;;;;;;14.60;99.90;;;;;;5093469;28;20423;-72
2021/06/22 05:30:48;;;;;;;;;;;14.50;99.90;;;;;;5093612;28;19916;-70
2021/06/22 05:33:15;;;;;;;;;;;14.60;99.90;;;;;;5093630;28;19999;-70
2021/06/22 05:35:41;;;;;;;;;;;14.60;99.90;;;;;;5093475;28;19924;-72
2021/06/22 05:38:08;;;;;;;;;;;14.60;99.90;;;;;;5093543;28;20012;-72
2021/06/22 05:40:35;;;;;;;;;;;14.60;99.90;;;;;;5093396;28;19908;-72
2021/06/22 05:43:02;;;;;;;;;;;14.60;99.90;;;;;;5092001;28;19908;-72
2021/06/22 05:45:28;;;;;;;;;;;14.60;99.90;;;;;;5093422;28;19931;-73
2021/06/22 05:47:55;;;;;;;;;;;14.60;99.90;;;;;;5093478;28;20167;-70
2021/06/22 05:50:22;;;;;;;;;;;14.70;99.90;;;;;;5093293;28;19988;-73
2021/06/22 05:52:50;;;;;;;;;;;14.60;99.90;;;;;;5093501;28;19999;-72
2021/06/22 05:55:16;;;;;;;;;;;14.60;99.90;;;;;;5093044;28;19923;-73
2021/06/22 05:57:53;;;;;;;;;;;14.60;99.90;;;;;;5092800;28;19908;-72
2021/06/22 06:00:24;;;;;;;;;;;14.50;99.90;;;;;;5093192;28;19915;-71
2021/06/22 06:02:51;;;;;;;;;;;14.40;99.90;;;;;;5093175;28;20259;-72
2021/06/22 06:05:18;;;;;;;;;;;14.40;99.90;;;;;;5093055;28;19915;-71
2021/06/22 06:07:46;;;;;;;;;;;14.40;99.90;;;;;;5093102;28;20069;-72
2021/06/22 06:10:13;;;;;;;;;;;14.40;99.90;;;;;;5093132;28;20263;-73
2021/06/22 06:12:40;;;;;;;;;;;14.40;99.90;;;;;;5092984;28;20251;-72
2021/06/22 06:15:08;;;;;;;;;;;14.40;99.90;;;;;;5094890;28;20362;-72
2021/06/22 06:17:35;;;;;;;;;;;14.40;99.90;;;;;;5097268;28;19908;-71
2021/06/22 06:20:04;;;;;;;;;;;14.40;99.90;;;;;;5097213;28;19908;-73
2021/06/22 06:22:30;;;;;;;;;;;14.30;99.90;;;;;;5097428;28;19908;-73
2021/06/22 06:25:00;;;;;;;;;;;14.30;99.90;;;;;;5099561;28;19908;-72
2021/06/22 06:27:47;;;;;;;;;;;14.30;99.90;;;;;;5097103;28;19961;-72
2021/06/22 06:30:23;;;;;;;;;;;14.40;99.90;;;;;;5097020;28;20491;-70
2021/06/22 06:32:50;;;;;;;;;;;14.30;99.90;;;;;;5097137;28;19915;-71
2021/06/22 06:35:17;;;;;;;;;;;14.30;99.90;;;;;;5096990;28;19920;-72
2021/06/22 06:37:44;;;;;;;;;;;14.20;99.90;;;;;;5096924;28;19947;-71
2021/06/22 06:40:11;;;;;;;;;;;14.20;99.90;;;;;;5097057;28;19908;-72
2021/06/22 06:42:38;;;;;;;;;;;14.10;99.90;;;;;;5096967;28;19912;-71
2021/06/22 06:45:06;;;;;;;;;;;14.00;99.90;;;;;;5096777;28;19908;-72
2021/06/22 06:47:33;;;;;;;;;;;13.90;99.90;;;;;;5096697;28;19915;-70
2021/06/22 06:49:59;;;;;;;;;;;13.90;99.90;;;;;;5096691;28;20307;-71
2021/06/22 06:52:26;;;;;;;;;;;13.80;99.90;;;;;;5096601;28;19908;-71
2021/06/22 06:54:54;;;;;;;;;;;13.70;99.90;;;;;;5096683;28;19923;-73
2021/06/22 06:57:21;;;;;;;;;;;13.70;99.90;;;;;;5096641;28;19965;-72
2021/06/22 06:59:47;;;;;;;;;;;13.70;99.90;;;;;;5096190;28;19915;-73
2021/06/22 07:02:14;;;;;;;;;;;13.60;99.90;;;;;;5096354;28;19916;-73
2021/06/22 07:04:40;;;;;;;;;;;13.60;99.90;;;;;;5096588;28;19908;-71
2021/06/22 07:07:07;;;;;;;;;;;13.60;99.90;;;;;;5096402;28;19916;-72
2021/06/22 07:09:34;;;;;;;;;;;13.50;99.90;;;;;;5096159;28;19944;-71
2021/06/22 07:12:01;;;;;;;;;;;13.50;99.90;;;;;;5096337;28;19908;-72
2021/06/22 07:14:27;;;;;;;;;;;13.40;99.90;;;;;;5095659;28;19920;-73
2021/06/22 07:16:54;;;;;;;;;;;13.40;99.90;;;;;;5096273;28;19908;-74
2021/06/22 07:19:21;;;;;;;;;;;13.40;99.90;;;;;;5096072;28;19912;-72
2021/06/22 07:21:47;;;;;;;;;;;13.30;99.90;;;;;;5095747;28;19908;-73
2021/06/22 07:24:14;;;;;;;;;;;13.30;99.90;;;;;;5096088;28;19935;-73
2021/06/22 07:26:41;;;;;;;;;;;13.30;99.90;;;;;;5094866;28;19908;-73
2021/06/22 07:29:08;;;;;;;;;;;13.30;99.90;;;;;;5095828;28;19908;-74
2021/06/22 07:31:35;;;;;;;;;;;13.20;99.90;;;;;;5096867;28;20320;-73
2021/06/22 07:34:02;;;;;;;;;;;13.20;99.90;;;;;;5096919;28;20007;-72
2021/06/22 07:36:29;;;;;;;;;;;13.20;99.90;;;;;;5096174;28;19912;-73
2021/06/22 07:38:55;;;;;;;;;;;13.10;99.90;;;;;;5095848;28;19957;-74
2021/06/22 07:41:22;;;;;;;;;;;13.10;99.90;;;;;;5093230;28;20354;-74
2021/06/22 07:43:49;;;;;;;;;;;13.10;99.90;;;;;;5093202;28;19916;-72
2021/06/22 07:46:16;;;;;;;;;;;13.10;99.90;;;;;;5093600;28;19919;-73
2021/06/22 07:48:42;;;;;;;;;;;13.20;99.90;;;;;;5093553;28;20366;-73
2021/06/22 07:51:09;;;;;;;;;;;13.20;99.90;;;;;;5093328;28;19961;-71
2021/06/22 07:53:36;;;;;;;;;;;13.10;99.90;;;;;;5092739;28;20038;-71
2021/06/22 07:56:03;;;;;;;;;;;13.10;99.90;;;;;;5093651;28;20453;-72
2021/06/22 07:58:29;;;;;;;;;;;13.10;99.90;;;;;;5093348;28;19972;-73
2021/06/22 08:00:56;;;;;;;;;;;13.10;99.90;;;;;;5093335;28;19978;-71
2021/06/22 08:03:24;;;;;;;;;;;13.10;99.90;;;;;;5093383;28;19908;-71
2021/06/22 08:05:52;;;;;;;;;;;13.00;99.90;;;;;;5092852;28;19972;-72
2021/06/22 08:08:20;;;;;;;;;;;13.00;99.90;;;;;;5093116;28;19961;-72
2021/06/22 08:10:47;;;;;;;;;;;13.10;99.90;;;;;;5093120;28;19953;-71
2021/06/22 08:13:14;;;;;;;;;;;13.10;99.90;;;;;;5092571;28;19916;-72
2021/06/22 08:15:41;;;;;;;;;;;13.00;99.90;;;;;;5092761;28;19923;-70
2021/06/22 08:18:08;;;;;;;;;;;13.10;99.90;;;;;;5093119;28;20263;-72
2021/06/22 08:20:36;;;;;;;;;;;13.10;99.90;;;;;;5093003;28;20461;-71
2021/06/22 08:23:03;;;;;;;;;;;13.10;99.90;;;;;;5092774;28;19920;-72
2021/06/22 08:25:30;;;;;;;;;;;13.10;99.90;;;;;;5092871;28;20317;-70
2021/06/22 08:27:57;;;;;;;;;;;13.00;99.90;;;;;;5092489;28;19916;-73
2021/06/22 08:30:24;;;;;;;;;;;13.00;99.90;;;;;;5092717;28;19918;-72
2021/06/22 08:32:51;;;;;;;;;;;13.00;99.90;;;;;;5092482;28;19912;-73
2021/06/22 08:35:18;;;;;;;;;;;12.90;99.90;;;;;;5092663;28;19919;-71
2021/06/22 08:37:44;;;;;;;;;;;12.90;99.90;;;;;;5087649;28;20362;-73
2021/06/22 08:40:11;;;;;;;;;;;12.90;99.90;;;;;;5092314;28;19919;-71
2021/06/22 08:42:40;;;;;;;;;;;12.90;99.90;;;;;;5092372;28;19916;-73
2021/06/22 08:45:08;;;;;;;;;;;12.90;99.90;;;;;;5092089;28;19912;-71
2021/06/22 08:47:35;;;;;;;;;;;12.90;99.90;;;;;;5090802;28;19915;-70
2021/06/22 08:50:02;;;;;;;;;;;12.80;99.90;;;;;;5092152;28;20003;-71
2021/06/22 08:52:31;;;;;;;;;;;12.80;99.90;;;;;;5091743;28;19910;-71
2021/06/22 08:54:59;;;;;;;;;;;12.80;99.90;;;;;;5092103;28;19916;-73
2021/06/22 08:57:26;;;;;;;;;;;12.80;99.90;;;;;;5092333;28;19951;-72
2021/06/22 08:59:53;;;;;;;;;;;12.80;99.90;;;;;;5091473;28;19909;-72
2021/06/22 09:02:27;;;;;;;;;;;12.80;99.90;;;;;;5092262;28;19909;-71
2021/06/22 09:04:55;;;;;;;;;;;12.80;99.90;;;;;;5092743;28;19952;-73
2021/06/22 09:07:40;;;;;;;;;;;12.80;99.90;;;;;;5094906;28;19908;-71
2021/06/22 09:10:07;;;;;;;;;;;12.80;99.90;;;;;;5094793;28;19908;-69
2021/06/22 09:12:34;;;;;;;;;;;12.80;99.90;;;;;;5093976;28;19920;-69
2021/06/22 09:15:00;;;;;;;;;;;12.80;99.90;;;;;;5092374;28;20015;-73
2021/06/22 09:17:34;;;;;;;;;;;12.90;99.90;;;;;;5094049;28;19915;-73
2021/06/22 09:20:01;;;;;;;;;;;12.90;99.90;;;;;;5093922;28;20362;-71
2021/06/22 09:22:28;;;;;;;;;;;12.90;99.90;;;;;;5093294;28;19968;-73
2021/06/22 09:25:20;;;;;;;;;;;12.80;99.90;;;;;;5093761;28;19916;-72
2021/06/22 09:27:53;;;;;;;;;;;12.70;99.90;;;;;;5089723;28;20366;-72
2021/06/22 09:30:38;;;;;;;;;;;12.70;99.90;;;;;;5093624;28;19988;-72
2021/06/22 09:33:17;;;;;;;;;;;12.70;99.90;;;;;;5090950;28;19909;-72
2021/06/22 09:35:44;;;;;;;;;;;12.70;99.90;;;;;;5090769;28;19970;-72
2021/06/22 09:38:11;;;;;;;;;;;12.70;99.90;;;;;;5091440;28;19908;-73
2021/06/22 09:40:38;;;;;;;;;;;12.80;99.90;;;;;;5091416;28;19908;-71
2021/06/22 09:43:05;;;;;;;;;;;12.80;99.90;;;;;;5091395;28;20376;-73
2021/06/22 09:45:32;;;;;;;;;;;12.80;99.90;;;;;;5091035;28;19908;-73
2021/06/22 09:48:00;;;;;;;;;;;12.90;99.90;;;;;;5091202;28;20358;-74
2021/06/22 09:50:36;;;;;;;;;;;12.80;99.90;;;;;;5090236;28;19931;-73
2021/06/22 09:53:21;;;;;;;;;;;12.90;99.90;;;;;;5091317;28;19919;-73
2021/06/22 09:55:48;;;;;;;;;;;13.00;99.90;;;;;;5090974;28;20666;-72
2021/06/22 09:58:15;;;;;;;;;;;13.00;99.90;;;;;;5090766;28;19916;-74
2021/06/22 10:00:42;;;;;;;;;;;13.10;99.90;;;;;;5091216;28;19908;-71
2021/06/22 10:03:10;;;;;;;;;;;13.10;99.90;;;;;;5091248;28;19916;-73
2021/06/22 10:05:50;;;;;;;;;;;13.10;99.90;;;;;;5090357;28;20366;-72
2021/06/22 10:08:17;;;;;;;;;;;13.10;99.90;;;;;;5091127;28;19969;-73
2021/06/22 10:10:43;;;;;;;;;;;13.20;99.90;;;;;;5090812;28;19909;-72
2021/06/22 10:13:30;;;;;;;;;;;13.10;99.90;;;;;;5090922;28;19967;-72
2021/06/22 10:16:14;;;;;;;;;;;13.10;99.90;;;;;;5090912;28;19916;-71
2021/06/22 10:18:41;;;;;;;;;;;13.10;99.90;;;;;;5091052;28;20374;-72
2021/06/22 10:21:08;;;;;;;;;;;13.20;99.90;;;;;;5090511;28;19916;-71
2021/06/22 10:23:35;;;;;;;;;;;13.20;99.90;;;;;;5090399;28;19973;-71
2021/06/22 10:26:02;;;;;;;;;;;13.40;99.90;;;;;;5090724;28;19909;-71
2021/06/22 10:28:29;;;;;;;;;;;13.40;99.90;;;;;;5090858;28;19912;-72
2021/06/22 10:30:55;;;;;;;;;;;13.40;99.90;;;;;;5090963;28;19922;-71
2021/06/22 10:33:22;;;;;;;;;;;13.40;99.90;;;;;;5090866;28;19911;-72
2021/06/22 10:35:49;;;;;;;;;;;13.50;99.90;;;;;;5089303;28;19920;-72
2021/06/22 10:38:16;;;;;;;;;;;13.50;99.90;;;;;;5090659;28;19912;-72
2021/06/22 10:40:43;;;;;;;;;;;13.50;99.90;;;;;;5091035;28;19978;-72
2021/06/22 10:43:09;;;;;;;;;;;13.50;99.90;;;;;;5090552;28;20007;-72
2021/06/22 10:45:54;;;;;;;;;;;13.60;99.90;;;;;;5090694;28;19919;-72
2021/06/22 10:48:21;;;;;;;;;;;13.50;99.90;;;;;;5090668;28;20389;-71
2021/06/22 10:50:48;;;;;;;;;;;13.60;99.90;;;;;;5090449;28;20424;-69
2021/06/22 10:53:14;;;;;;;;;;;13.50;99.90;;;;;;5090831;28;19908;-69
2021/06/22 10:55:43;;;;;;;;;;;13.50;99.90;;;;;;5090355;28;20015;-70
2021/06/22 10:58:17;;;;;;;;;;;13.60;99.90;;;;;;5090523;28;20012;-70
2021/06/22 11:00:48;;;;;;;;;;;13.60;99.90;;;;;;5091863;28;19908;-69
2021/06/22 11:03:22;;;;;;;;;;;13.50;99.90;;;;;;5094566;28;20243;-72
2021/06/22 11:05:49;;;;;;;;;;;13.50;99.90;;;;;;5094209;28;19934;-69
2021/06/22 11:08:16;;;;;;;;;;;13.40;99.90;;;;;;5094421;28;20340;-71
2021/06/22 11:11:03;;;;;;;;;;;13.50;99.90;;;;;;5094302;28;19915;-71
2021/06/22 11:13:32;;;;;;;;;;;13.50;99.90;;;;;;5093800;28;19974;-70
2021/06/22 11:16:04;;;;;;;;;;;13.40;99.90;;;;;;5093921;28;19920;-71
2021/06/22 11:18:49;;;;;;;;;;;13.40;99.90;;;;;;5094171;28;19923;-73
2021/06/22 11:21:20;;;;;;;;;;;13.50;99.90;;;;;;5094249;28;19943;-71
2021/06/22 11:24:05;;;;;;;;;;;13.50;99.90;;;;;;5092639;28;19912;-72
2021/06/22 11:26:41;;;;;;;;;;;13.40;99.90;;;;;;5094130;28;20002;-72
2021/06/22 11:29:09;;;;;;;;;;;13.50;99.90;;;;;;5093583;28;19912;-72
2021/06/22 11:31:51;;;;;;;;;;;13.50;99.90;;;;;;5093796;28;20271;-72
2021/06/22 11:34:22;;;;;;;;;;;13.40;99.90;;;;;;5093735;28;19916;-72
2021/06/22 11:36:50;;;;;;;;;;;13.50;99.90;;;;;;5093884;28;19908;-71
2021/06/22 11:39:39;;;;;;;;;;;13.40;99.90;;;;;;5093582;28;19908;-71
2021/06/22 11:42:12;;;;;;;;;;;13.50;99.90;;;;;;5082453;28;19916;-70
2021/06/22 11:44:41;;;;;;;;;;;13.50;99.90;;;;;;5093503;28;19912;-70
2021/06/22 11:47:28;;;;;;;;;;;13.50;99.90;;;;;;5093587;28;20349;-71
2021/06/22 11:49:57;;;;;;;;;;;13.50;99.90;;;;;;5079554;28;19908;-69
2021/06/22 11:52:34;;;;;;;;;;;13.50;99.90;;;;;;5093447;28;19915;-71
2021/06/22 11:55:14;;;;;;;;;;;13.50;99.90;;;;;;5092953;28;19916;-70
2021/06/22 11:57:42;;;;;;;;;;;13.50;99.90;;;;;;5092950;28;19953;-71
2021/06/22 12:00:11;;;;;;;;;;;13.40;99.90;;;;;;5093132;28;19916;-72
2021/06/22 12:02:38;;;;;;;;;;;13.40;99.90;;;;;;5087353;28;19912;-71
2021/06/22 12:05:11;;;;;;;;;;;13.40;99.90;;;;;;5072843;28;20323;-71
2021/06/22 12:07:51;;;;;;;;;;;13.30;99.90;;;;;;5072762;28;19912;-71
2021/06/22 12:10:19;;;;;;;;;;;13.20;99.90;;;;;;5072862;28;19913;-71
2021/06/22 12:12:47;;;;;;;;;;;13.10;99.90;;;;;;5071208;28;19964;-69
2021/06/22 12:15:14;;;;;;;;;;;13.20;99.90;;;;;;5072695;28;20337;-72
2021/06/22 12:17:48;;;;;;;;;;;13.10;99.90;;;;;;5072451;28;19908;-71
2021/06/22 12:20:21;;;;;;;;;;;13.10;99.90;;;;;;5072601;28;19912;-71
2021/06/22 12:23:08;;;;;;;;;;;13.00;99.90;;;;;;5072341;28;19973;-71
2021/06/22 12:25:44;;;;;;;;;;;13.00;99.90;;;;;;5072480;28;19909;-72
2021/06/22 12:28:12;;;;;;;;;;;13.00;99.90;;;;;;5072046;28;20021;-73
2021/06/22 12:30:40;;;;;;;;;;;13.00;99.90;;;;;;5072601;28;20255;-71
2021/06/22 12:33:12;;;;;;;;;;;13.00;99.90;;;;;;5072428;28;19939;-71
2021/06/22 12:35:40;;;;;;;;;;;12.90;99.90;;;;;;5071667;28;19921;-72
2021/06/22 12:38:10;;;;;;;;;;;12.80;99.90;;;;;;5072136;28;19913;-72
2021/06/22 12:40:45;;;;;;;;;;;12.80;99.90;;;;;;5072152;28;20374;-71
2021/06/22 12:43:12;;;;;;;;;;;12.80;99.90;;;;;;5071553;28;19908;-72
2021/06/22 12:45:39;;;;;;;;;;;12.90;99.90;;;;;;5071878;28;19913;-71
2021/06/22 12:48:06;;;;;;;;;;;12.90;99.90;;;;;;5071755;28;19982;-71
2021/06/22 12:50:34;;;;;;;;;;;12.90;99.90;;;;;;5072174;28;19909;-71
2021/06/22 12:53:01;;;;;;;;;;;12.90;99.90;;;;;;5072056;28;19909;-72
2021/06/22 12:55:35;;;;;;;;;;;12.80;99.90;;;;;;5071989;28;19920;-73
2021/06/22 12:58:03;;;;;;;;;;;12.80;99.90;;;;;;5071329;28;20374;-71
2021/06/22 13:00:38;;;;;;;;;;;12.80;99.90;;;;;;5071437;28;20271;-71
2021/06/22 13:03:12;;;;;;;;;;;12.80;99.90;;;;;;5071899;28;19958;-71
2021/06/22 13:05:40;;;;;;;;;;;12.80;99.90;;;;;;5071719;28;19908;-71
2021/06/22 13:08:07;;;;;;;;;;;12.70;99.90;;;;;;5071773;28;19912;-71
2021/06/22 13:10:55;;;;;;;;;;;12.70;99.90;;;;;;5071730;28;19960;-72
2021/06/22 13:13:31;;;;;;;;;;;12.70;99.90;;;;;;5070473;28;20286;-71
2021/06/22 13:16:26;;;;;;;;;;;12.70;99.90;;;;;;5071222;28;20373;-71
2021/06/22 13:18:56;;;;;;;;;;;12.60;99.90;;;;;;5058315;28;20321;-71
2021/06/22 13:21:24;;;;;;;;;;;12.50;99.90;;;;;;5071477;28;20264;-73
2021/06/22 13:23:51;;;;;;;;;;;12.50;99.90;;;;;;5070669;28;20278;-71
2021/06/22 13:26:24;;;;;;;;;;;12.40;99.90;;;;;;5070823;28;19916;-74
2021/06/22 13:28:55;;;;;;;;;;;12.50;99.90;;;;;;5071637;28;19909;-72
2021/06/22 13:31:21;;;;;;;;;;;12.40;99.90;;;;;;5071323;28;19912;-71
2021/06/22 13:33:57;;;;;;;;;;;12.40;99.90;;;;;;5070960;28;20003;-70
2021/06/22 13:36:24;;;;;;;;;;;12.40;99.90;;;;;;5071321;28;19909;-70
2021/06/22 13:39:00;;;;;;;;;;;12.40;99.90;;;;;;5071429;28;20330;-71
2021/06/22 13:41:27;;;;;;;;;;;12.30;99.90;;;;;;5070780;28;19908;-70
2021/06/22 13:43:54;;;;;;;;;;;12.30;99.90;;;;;;5071128;28;20263;-71
2021/06/22 13:46:24;;;;;;;;;;;12.30;99.90;;;;;;5070882;28;19913;-71
2021/06/22 13:48:55;;;;;;;;;;;12.10;99.90;;;;;;5071455;28;19908;-70
2021/06/22 13:51:28;;;;;;;;;;;12.10;99.90;;;;;;5071419;28;19970;-70
2021/06/22 13:54:05;;;;;;;;;;;12.20;99.90;;;;;;5068701;28;19961;-71
2021/06/22 13:56:32;;;;;;;;;;;12.10;99.90;;;;;;5071040;28;19912;-72
2021/06/22 13:59:00;;;;;;;;;;;12.00;99.90;;;;;;5071106;28;20484;-72
2021/06/22 14:01:27;;;;;;;;;;;12.00;99.90;;;;;;5071065;28;19958;-72
2021/06/22 14:03:57;;;;;;;;;;;12.00;99.90;;;;;;5070772;28;19913;-71
2021/06/22 14:06:24;;;;;;;;;;;12.00;99.90;;;;;;5070597;28;19908;-72
2021/06/22 14:08:51;;;;;;;;;;;11.90;99.90;;;;;;5070985;28;19908;-72
2021/06/22 14:11:22;;;;;;;;;;;12.00;99.90;;;;;;5070712;28;19924;-70
2021/06/22 14:13:50;;;;;;;;;;;12.10;99.90;;;;;;5070632;28;20003;-71
2021/06/22 14:16:17;;;;;;;;;;;12.10;99.90;;;;;;5070963;28;19917;-71
2021/06/22 14:18:45;;;;;;;;;;;12.10;99.90;;;;;;5070594;28;19912;-72
2021/06/22 14:21:12;;;;;;;;;;;12.10;99.90;;;;;;5070873;28;19999;-72
2021/06/22 14:23:39;;;;;;;;;;;12.00;99.90;;;;;;5070632;28;19908;-71
2021/06/22 14:26:06;;;;;;;;;;;12.00;99.90;;;;;;5070726;28;20311;-70